createdAt,value
2022-12-11T00:02:08.121Z,100983.09
2022-12-11T00:04:34.526Z,100979.50
2022-12-11T00:07:00.936Z,100978.53
2022-12-11T00:09:27.331Z,100974.16
2022-12-11T00:11:53.734Z,100978.53
2022-12-11T00:14:20.113Z,100974.19
2022-12-11T00:16:48.005Z,100976.75
2022-12-11T00:19:14.426Z,100970.56
2022-12-11T00:21:40.837Z,100967.03
2022-12-11T00:24:07.389Z,100974.94
2022-12-11T00:26:33.772Z,100966.16
2022-12-11T00:29:00.157Z,100972.19
2022-12-11T00:31:26.632Z,100978.09
2022-12-11T00:33:53.062Z,100967.59
2022-12-11T00:36:24.338Z,100968.53
2022-12-11T00:38:50.760Z,100978.31
2022-12-11T00:41:17.438Z,100971.38
2022-12-11T00:43:43.875Z,100973.13
2022-12-11T00:46:10.616Z,100973.00
2022-12-11T00:48:37.166Z,100962.44
2022-12-11T00:51:03.662Z,100971.34
2022-12-11T00:53:30.130Z,100975.69
2022-12-11T00:55:56.510Z,100970.47
2022-12-11T00:58:22.960Z,100967.94
2022-12-11T01:00:49.340Z,100973.06
2022-12-11T01:03:15.950Z,100980.94
2022-12-11T01:05:42.491Z,100974.81
2022-12-11T01:08:08.958Z,100974.81
2022-12-11T01:10:35.472Z,100971.28
2022-12-11T01:13:04.100Z,100970.34
2022-12-11T01:15:32.555Z,100967.66
2022-12-11T01:17:58.996Z,100967.59
2022-12-11T01:20:25.790Z,100957.09
2022-12-11T01:22:53.273Z,100970.47
2022-12-11T01:25:19.693Z,100969.81
2022-12-11T01:27:46.101Z,100974.28
2022-12-11T01:30:12.579Z,100975.16
2022-12-11T01:32:38.979Z,100973.22
2022-12-11T01:35:06.500Z,100975.81
2022-12-11T01:37:33.173Z,100971.44
2022-12-11T01:40:00.479Z,100979.31
2022-12-11T01:42:26.981Z,100980.28
2022-12-11T01:44:53.254Z,100978.56
2022-12-11T01:47:19.649Z,100977.69
2022-12-11T01:49:46.054Z,100987.41
2022-12-11T01:52:18.542Z,100984.72
2022-12-11T01:54:44.990Z,100975.97
2022-12-11T01:57:11.430Z,100989.00
2022-12-11T01:59:39.780Z,100972.38
2022-12-11T02:02:12.245Z,100974.91
2022-12-11T02:04:38.981Z,100972.19
2022-12-11T02:07:05.429Z,100980.06
2022-12-11T02:09:33.197Z,100975.75
2022-12-11T02:12:12.824Z,100967.94
2022-12-11T02:14:59.921Z,100976.75
2022-12-11T02:17:32.082Z,100975.88
2022-12-11T02:20:30.951Z,100974.06
2022-12-11T02:23:06.109Z,100967.94
2022-12-11T02:26:06.369Z,100975.88
2022-12-11T02:28:41.630Z,100974.09
2022-12-11T02:31:19.803Z,100970.75
2022-12-11T02:34:09.486Z,100969.03
2022-12-11T02:36:38.088Z,100977.75
2022-12-11T02:39:04.651Z,100969.91
2022-12-11T02:41:31.063Z,100964.56
2022-12-11T02:43:57.471Z,100970.72
2022-12-11T02:46:23.880Z,100959.41
2022-12-11T02:48:50.474Z,100958.72
2022-12-11T02:51:17.935Z,100956.09
2022-12-11T02:53:44.306Z,100952.66
2022-12-11T02:56:21.703Z,100954.47
2022-12-11T02:58:52.708Z,100956.28
2022-12-11T03:01:23.337Z,100958.94
2022-12-11T03:03:49.737Z,100951.88
2022-12-11T03:06:17.651Z,100957.19
2022-12-11T03:08:44.587Z,100955.50
2022-12-11T03:11:11.973Z,100948.56
2022-12-11T03:13:39.191Z,100959.00
2022-12-11T03:16:11.694Z,100954.66
2022-12-11T03:19:10.541Z,100956.41
2022-12-11T03:21:45.948Z,100963.34
2022-12-11T03:24:28.535Z,100960.81
2022-12-11T03:26:58.428Z,100953.72
2022-12-11T03:29:37.845Z,100962.47
2022-12-11T03:32:09.351Z,100957.09
2022-12-11T03:34:44.593Z,100953.47
2022-12-11T03:37:11.683Z,100962.13
2022-12-11T03:39:39.998Z,100960.22
2022-12-11T03:42:07.725Z,100953.16
2022-12-11T03:44:34.294Z,100954.06
2022-12-11T03:47:01.333Z,100942.66
2022-12-11T03:49:29.188Z,100956.59
2022-12-11T03:51:56.350Z,100959.13
2022-12-11T03:54:23.128Z,100956.50
2022-12-11T03:56:49.571Z,100951.34
2022-12-11T03:59:15.986Z,100953.16
2022-12-11T04:01:42.488Z,100952.19
2022-12-11T04:04:09.013Z,100953.88
2022-12-11T04:06:35.437Z,100957.44
2022-12-11T04:09:01.865Z,100951.38
2022-12-11T04:11:28.245Z,100947.16
2022-12-11T04:13:54.633Z,100946.38
2022-12-11T04:16:21.099Z,100938.44
2022-12-11T04:18:47.537Z,100946.19
2022-12-11T04:21:13.995Z,100943.56
2022-12-11T04:23:40.383Z,100941.06
2022-12-11T04:26:17.065Z,100940.09
2022-12-11T04:28:43.876Z,100935.72
2022-12-11T04:31:14.326Z,100938.22
2022-12-11T04:33:40.814Z,100939.06
2022-12-11T04:36:07.662Z,100940.84
2022-12-11T04:38:34.034Z,100947.00
2022-12-11T04:41:06.465Z,100946.16
2022-12-11T04:43:32.934Z,100945.41
2022-12-11T04:46:02.118Z,100939.41
2022-12-11T04:48:28.550Z,100946.47
2022-12-11T04:50:54.949Z,100948.19
2022-12-11T04:53:21.346Z,100942.03
2022-12-11T04:55:47.722Z,100949.97
2022-12-11T04:58:14.149Z,100940.34
2022-12-11T05:00:41.180Z,100936.66
2022-12-11T05:03:07.976Z,100931.41
2022-12-11T05:05:34.522Z,100929.66
2022-12-11T05:08:00.960Z,100930.63
2022-12-11T05:10:27.407Z,100926.22
2022-12-11T05:12:53.809Z,100934.06
2022-12-11T05:15:20.191Z,100935.84
2022-12-11T05:17:46.641Z,100939.44
2022-12-11T05:20:13.025Z,100940.34
2022-12-11T05:22:39.507Z,100942.97
2022-12-11T05:25:06.630Z,100941.28
2022-12-11T05:27:33.192Z,100943.00
2022-12-11T05:29:59.835Z,100943.88
2022-12-11T05:32:26.334Z,100939.47
2022-12-11T05:34:52.716Z,100940.28
2022-12-11T05:37:19.127Z,100941.16
2022-12-11T05:39:45.525Z,100939.38
2022-12-11T05:42:11.917Z,100941.09
2022-12-11T05:44:38.316Z,100938.53
2022-12-11T05:47:04.783Z,100941.16
2022-12-11T05:49:31.344Z,100940.28
2022-12-11T05:51:57.787Z,100940.22
2022-12-11T05:54:24.193Z,100937.56
2022-12-11T05:56:50.609Z,100937.56
2022-12-11T05:59:17.078Z,100940.25
2022-12-11T06:01:43.625Z,100936.81
2022-12-11T06:04:10.837Z,100938.63
2022-12-11T06:06:37.231Z,100937.75
2022-12-11T06:09:03.987Z,100939.53
2022-12-11T06:11:31.324Z,100939.56
2022-12-11T06:13:57.816Z,100943.00
2022-12-11T06:16:24.317Z,100941.25
2022-12-11T06:18:50.870Z,100936.00
2022-12-11T06:21:19.341Z,100936.81
2022-12-11T06:23:46.365Z,100934.97
2022-12-11T06:26:12.906Z,100932.34
2022-12-11T06:28:39.440Z,100937.56
2022-12-11T06:31:05.908Z,100936.56
2022-12-11T06:33:32.378Z,100937.34
2022-12-11T06:36:05.703Z,100932.84
2022-12-11T06:38:32.174Z,100939.63
2022-12-11T06:40:59.323Z,100940.44
2022-12-11T06:43:25.724Z,100942.94
2022-12-11T06:45:52.169Z,100943.66
2022-12-11T06:48:19.464Z,100942.72
2022-12-11T06:50:46.089Z,100928.69
2022-12-11T06:53:13.105Z,100930.38
2022-12-11T06:55:39.579Z,100932.09
2022-12-11T06:58:05.966Z,100931.97
2022-12-11T07:00:32.374Z,100943.22
2022-12-11T07:02:58.769Z,100942.34
2022-12-11T07:05:25.196Z,100945.72
2022-12-11T07:07:53.750Z,100948.28
2022-12-11T07:10:25.737Z,100961.31
2022-12-11T07:12:54.947Z,100963.81
2022-12-11T07:15:21.371Z,100961.09
2022-12-11T07:17:47.759Z,100957.44
2022-12-11T07:20:17.754Z,100964.28
2022-12-11T07:22:48.892Z,100963.28
2022-12-11T07:25:15.722Z,100971.13
2022-12-11T07:27:42.097Z,100971.13
2022-12-11T07:30:09.298Z,100972.91
2022-12-11T07:32:35.715Z,100977.25
2022-12-11T07:35:02.150Z,100982.47
2022-12-11T07:37:28.544Z,100971.09
2022-12-11T07:39:55.031Z,100975.31
2022-12-11T07:42:21.417Z,100977.00
2022-12-11T07:44:47.812Z,100982.25
2022-12-11T07:47:14.210Z,100973.59
2022-12-11T07:49:40.589Z,100979.78
2022-12-11T07:52:06.982Z,100980.59
2022-12-11T07:54:33.377Z,100981.34
2022-12-11T07:56:59.781Z,100979.50
2022-12-11T07:59:26.158Z,100982.03
2022-12-11T08:01:52.572Z,100981.13
2022-12-11T08:04:18.950Z,100984.59
2022-12-11T08:06:45.361Z,100982.88
2022-12-11T08:09:17.484Z,100980.28
2022-12-11T08:11:51.225Z,100982.09
2022-12-11T08:14:18.037Z,100977.75
2022-12-11T08:16:44.657Z,100978.63
2022-12-11T08:19:13.988Z,100977.75
2022-12-11T08:21:40.402Z,100976.13
2022-12-11T08:24:07.974Z,100965.66
2022-12-11T08:26:34.572Z,100960.47
2022-12-11T08:29:01.267Z,100958.81
2022-12-11T08:31:27.809Z,100974.53
2022-12-11T08:33:55.087Z,100969.47
2022-12-11T08:36:21.920Z,100972.31
2022-12-11T08:38:48.436Z,100975.00
2022-12-11T08:41:22.550Z,100955.81
2022-12-11T08:44:00.010Z,100974.31
2022-12-11T08:46:28.271Z,100970.09
2022-12-11T08:48:57.825Z,100951.66
2022-12-11T08:51:25.530Z,100962.38
2022-12-11T08:53:53.982Z,100965.03
2022-12-11T08:56:20.493Z,100969.47
2022-12-11T08:58:47.309Z,100967.72
2022-12-11T09:01:15.310Z,100966.03
2022-12-11T09:03:44.616Z,100966.16
2022-12-11T09:06:12.782Z,100967.00
2022-12-11T09:08:39.371Z,100957.44
2022-12-11T09:11:10.370Z,100958.28
2022-12-11T09:13:37.246Z,100958.34
2022-12-11T09:16:08.006Z,100958.44
2022-12-11T09:18:34.631Z,100956.75
2022-12-11T09:21:05.836Z,100952.47
2022-12-11T09:23:32.514Z,100952.53
2022-12-11T09:25:58.985Z,100945.50
2022-12-11T09:28:25.575Z,100949.84
2022-12-11T09:30:52.082Z,100963.81
2022-12-11T09:33:18.503Z,100945.50
2022-12-11T09:35:44.894Z,100955.16
2022-12-11T09:38:11.301Z,100945.56
2022-12-11T09:40:41.397Z,100937.00
2022-12-11T09:43:09.568Z,100938.78
2022-12-11T09:45:35.983Z,100939.63
2022-12-11T09:48:02.398Z,100937.91
2022-12-11T09:50:31.890Z,100932.66
2022-12-11T09:53:18.762Z,100934.50
2022-12-11T09:55:49.315Z,100930.19
2022-12-11T09:58:48.114Z,100938.09
2022-12-11T10:01:26.395Z,100935.50
2022-12-11T10:03:59.318Z,100937.28
2022-12-11T10:06:33.121Z,100935.50
2022-12-11T10:08:59.402Z,100936.38
2022-12-11T10:11:31.804Z,100936.34
2022-12-11T10:14:07.721Z,100927.59
2022-12-11T10:16:35.824Z,100929.31
2022-12-11T10:19:02.214Z,100923.19
2022-12-11T10:21:29.555Z,100917.00
2022-12-11T10:24:00.581Z,100921.47
2022-12-11T10:26:27.750Z,100920.63
2022-12-11T10:28:54.154Z,100912.88
2022-12-11T10:31:41.615Z,100916.47
2022-12-11T10:34:41.483Z,100906.88
2022-12-11T10:37:07.870Z,100896.28
2022-12-11T10:39:34.276Z,100901.66
2022-12-11T10:42:00.653Z,100905.19
2022-12-11T10:44:30.810Z,100900.88
2022-12-11T10:47:23.253Z,100900.91
2022-12-11T10:50:02.312Z,100893.97
2022-12-11T10:52:32.225Z,100903.59
2022-12-11T10:55:03.628Z,100901.81
2022-12-11T10:57:32.211Z,100901.88
2022-12-11T10:59:58.649Z,100898.41
2022-12-11T11:02:30.935Z,100901.94
2022-12-11T11:04:58.623Z,100894.09
2022-12-11T11:07:34.476Z,100889.75
2022-12-11T11:10:15.508Z,100888.91
2022-12-11T11:12:45.610Z,100891.59
2022-12-11T11:15:19.361Z,100892.44
2022-12-11T11:17:55.506Z,100887.19
2022-12-11T11:20:29.736Z,100891.53
2022-12-11T11:22:57.710Z,100889.81
2022-12-11T11:25:28.858Z,100883.72
2022-12-11T11:28:05.476Z,100881.91
2022-12-11T11:30:39.525Z,100881.00
2022-12-11T11:33:26.097Z,100887.97
2022-12-11T11:36:03.496Z,100883.69
2022-12-11T11:38:42.869Z,100880.25
2022-12-11T11:41:36.017Z,100876.13
2022-12-11T11:44:04.412Z,100865.56
2022-12-11T11:46:37.292Z,100865.63
2022-12-11T11:49:12.809Z,100860.38
2022-12-11T11:51:47.722Z,100859.53
2022-12-11T11:54:51.715Z,100858.72
2022-12-11T11:57:32.449Z,100855.31
2022-12-11T12:00:21.410Z,100846.59
2022-12-11T12:02:56.153Z,100851.94
2022-12-11T12:05:59.693Z,100848.50
2022-12-11T12:08:46.922Z,100855.53
2022-12-11T12:11:20.075Z,100856.50
2022-12-11T12:14:00.559Z,100859.22
2022-12-11T12:16:52.796Z,100852.38
2022-12-11T12:19:38.393Z,100860.38
2022-12-11T12:22:35.756Z,100857.00
2022-12-11T12:25:15.543Z,100850.94
2022-12-11T12:27:52.766Z,100850.09
2022-12-11T12:30:22.983Z,100853.63
2022-12-11T12:32:56.149Z,100851.91
2022-12-11T12:36:06.794Z,100846.69
2022-12-11T12:38:40.117Z,100852.78
2022-12-11T12:41:16.072Z,100857.06
2022-12-11T12:44:00.320Z,100855.31
2022-12-11T12:46:38.836Z,100850.13
2022-12-11T12:49:05.247Z,100858.00
2022-12-11T12:51:31.634Z,100851.06
2022-12-11T12:54:00.643Z,100846.72
2022-12-11T12:56:27.810Z,100842.38
2022-12-11T12:58:54.230Z,100848.47
2022-12-11T13:01:22.714Z,100847.44
2022-12-11T13:03:56.800Z,100836.38
2022-12-11T13:06:50.697Z,100839.19
2022-12-11T13:09:17.011Z,100849.69
2022-12-11T13:11:43.501Z,100839.16
2022-12-11T13:14:16.170Z,100847.13
2022-12-11T13:16:43.768Z,100846.34
2022-12-11T13:19:22.551Z,100853.72
2022-12-11T13:22:04.071Z,100853.78
2022-12-11T13:24:31.400Z,100852.84
2022-12-11T13:27:11.251Z,100858.84
2022-12-11T13:29:41.625Z,100854.28
2022-12-11T13:32:07.923Z,100860.34
2022-12-11T13:34:42.858Z,100857.66
2022-12-11T13:37:40.209Z,100855.88
2022-12-11T13:40:28.053Z,100867.31
2022-12-11T13:42:59.542Z,100867.25
2022-12-11T13:45:28.513Z,100868.97
2022-12-11T13:47:57.902Z,100863.72
2022-12-11T13:50:26.339Z,100872.50
2022-12-11T13:52:54.006Z,100866.38
2022-12-11T13:55:23.446Z,100868.97
2022-12-11T13:57:49.851Z,100874.16
2022-12-11T14:00:34.384Z,100885.50
2022-12-11T14:03:05.160Z,100875.84
2022-12-11T14:05:31.537Z,100875.84
2022-12-11T14:07:59.540Z,100876.69
2022-12-11T14:10:27.472Z,100874.88
2022-12-11T14:12:53.781Z,100868.69
2022-12-11T14:15:20.331Z,100874.81
2022-12-11T14:17:51.539Z,100873.00
2022-12-11T14:20:32.380Z,100888.69
2022-12-11T14:23:22.065Z,100887.78
2022-12-11T14:26:18.746Z,100892.94
2022-12-11T14:28:45.143Z,100894.56
2022-12-11T14:31:14.480Z,100893.56
2022-12-11T14:33:43.374Z,100895.25
2022-12-11T14:36:09.986Z,100888.22
2022-12-11T14:38:44.460Z,100889.03
2022-12-11T14:41:19.927Z,100878.47
2022-12-11T14:43:48.779Z,100886.25
2022-12-11T14:46:21.948Z,100872.13
2022-12-11T14:48:59.085Z,100880.81
2022-12-11T14:51:28.138Z,100872.81
2022-12-11T14:53:54.553Z,100885.00
2022-12-11T14:56:22.723Z,100880.59
2022-12-11T14:58:59.141Z,100880.47
2022-12-11T15:01:32.634Z,100884.69
2022-12-11T15:04:05.560Z,100883.72
2022-12-11T15:06:33.489Z,100893.34
2022-12-11T15:09:31.493Z,100881.88
2022-12-11T15:11:59.517Z,100883.44
2022-12-11T15:14:26.650Z,100889.47
2022-12-11T15:16:54.483Z,100887.78
2022-12-11T15:19:31.506Z,100884.34
2022-12-11T15:22:04.541Z,100892.31
2022-12-11T15:24:41.611Z,100886.28
2022-12-11T15:27:28.702Z,100892.44
2022-12-11T15:29:55.103Z,100889.84
2022-12-11T15:32:21.510Z,100887.19
2022-12-11T15:34:50.665Z,100891.50
2022-12-11T15:37:33.809Z,100892.28
2022-12-11T15:40:00.944Z,100887.81
2022-12-11T15:42:30.316Z,100888.69
2022-12-11T15:44:56.711Z,100886.91
2022-12-11T15:47:24.761Z,100887.81
2022-12-11T15:49:58.661Z,100885.13
2022-12-11T15:52:25.105Z,100882.50
2022-12-11T15:54:51.567Z,100879.03
2022-12-11T15:57:22.104Z,100878.13
2022-12-11T15:59:48.699Z,100877.25
2022-12-11T16:02:15.403Z,100878.13
2022-12-11T16:04:41.831Z,100874.63
2022-12-11T16:07:23.570Z,100872.03
2022-12-11T16:09:49.957Z,100870.34
2022-12-11T16:12:20.114Z,100873.00
2022-12-11T16:14:46.542Z,100875.56
2022-12-11T16:17:13.918Z,100877.28
2022-12-11T16:19:40.874Z,100880.78
2022-12-11T16:22:07.428Z,100886.00
2022-12-11T16:24:36.647Z,100880.72
2022-12-11T16:27:03.695Z,100888.56
2022-12-11T16:29:34.003Z,100892.06
2022-12-11T16:32:02.283Z,100891.22
2022-12-11T16:34:28.705Z,100891.22
2022-12-11T16:36:57.807Z,100886.88
2022-12-11T16:39:24.341Z,100883.38
2022-12-11T16:41:50.813Z,100880.81
2022-12-11T16:44:23.378Z,100881.72
2022-12-11T16:46:51.976Z,100873.94
2022-12-11T16:49:18.440Z,100882.69
2022-12-11T16:51:44.940Z,100882.69
2022-12-11T16:54:11.445Z,100886.16
2022-12-11T16:56:40.328Z,100893.19
2022-12-11T16:59:09.147Z,100896.69
2022-12-11T17:01:35.592Z,100896.69
2022-12-11T17:04:04.340Z,100895.81
2022-12-11T17:06:30.769Z,100895.81
2022-12-11T17:08:57.182Z,100889.66
2022-12-11T17:11:23.785Z,100883.50
2022-12-11T17:13:57.268Z,100885.25
2022-12-11T17:16:24.058Z,100889.66
2022-12-11T17:18:50.458Z,100887.94
2022-12-11T17:21:20.542Z,100888.00
2022-12-11T17:23:46.803Z,100884.50
2022-12-11T17:26:14.316Z,100899.34
2022-12-11T17:28:40.719Z,100896.69
2022-12-11T17:31:08.568Z,100900.22
2022-12-11T17:33:35.221Z,100897.63
2022-12-11T17:36:02.382Z,100892.41
2022-12-11T17:38:28.969Z,100894.16
2022-12-11T17:40:55.405Z,100896.78
2022-12-11T17:43:21.812Z,100891.53
2022-12-11T17:45:49.604Z,100889.78
2022-12-11T17:48:16.513Z,100884.47
2022-12-11T17:50:43.680Z,100889.63
2022-12-11T17:53:10.417Z,100882.56
2022-12-11T17:55:40.740Z,100884.22
2022-12-11T17:58:07.184Z,100888.56
2022-12-11T18:00:33.649Z,100887.63
2022-12-11T18:03:00.072Z,100879.75
2022-12-11T18:05:26.516Z,100892.75
2022-12-11T18:07:57.409Z,100892.69
2022-12-11T18:10:25.951Z,100890.03
2022-12-11T18:12:52.503Z,100890.94
2022-12-11T18:15:19.012Z,100887.47
2022-12-11T18:17:45.748Z,100888.41
2022-12-11T18:20:13.311Z,100889.38
2022-12-11T18:22:39.745Z,100887.66
2022-12-11T18:25:10.031Z,100898.28
2022-12-11T18:27:38.101Z,100900.91
2022-12-11T18:30:04.801Z,100903.53
2022-12-11T18:32:31.180Z,100898.22
2022-12-11T18:34:57.577Z,100896.34
2022-12-11T18:37:27.897Z,100898.91
2022-12-11T18:39:54.701Z,100901.50
2022-12-11T18:42:36.423Z,100908.53
2022-12-11T18:45:03.746Z,100909.50
2022-12-11T18:47:30.342Z,100899.94
2022-12-11T18:49:56.746Z,100903.38
2022-12-11T18:52:23.125Z,100901.59
2022-12-11T18:54:49.557Z,100892.78
2022-12-11T18:57:15.978Z,100897.25
2022-12-11T18:59:42.405Z,100905.22
2022-12-11T19:02:10.595Z,100910.50
2022-12-11T19:04:37.014Z,100903.53
2022-12-11T19:07:03.516Z,100907.03
2022-12-11T19:09:32.786Z,100892.13
2022-12-11T19:12:03.588Z,100906.28
2022-12-11T19:14:30.006Z,100911.31
2022-12-11T19:16:56.392Z,100913.81
2022-12-11T19:19:23.313Z,100912.94
2022-12-11T19:21:49.746Z,100908.59
2022-12-11T19:24:18.402Z,100915.56
2022-12-11T19:26:45.044Z,100912.06
2022-12-11T19:29:36.115Z,100919.13
2022-12-11T19:32:02.603Z,100917.50
2022-12-11T19:34:29.027Z,100916.72
2022-12-11T19:36:55.489Z,100919.41
2022-12-11T19:39:21.911Z,100917.69
2022-12-11T19:41:48.478Z,100911.59
2022-12-11T19:44:14.893Z,100917.75
2022-12-11T19:46:41.391Z,100918.56
2022-12-11T19:49:07.863Z,100912.44
2022-12-11T19:51:36.864Z,100918.47
2022-12-11T19:54:03.318Z,100920.22
2022-12-11T19:56:29.970Z,100912.38
2022-12-11T19:58:58.443Z,100917.66
2022-12-11T20:01:33.008Z,100909.81
2022-12-11T20:04:01.548Z,100908.16
2022-12-11T20:06:28.921Z,100911.66
2022-12-11T20:08:55.388Z,100919.50
2022-12-11T20:11:22.785Z,100903.78
2022-12-11T20:13:49.472Z,100909.00
2022-12-11T20:16:16.329Z,100916.78
2022-12-11T20:18:44.007Z,100912.31
2022-12-11T20:21:12.981Z,100912.25
2022-12-11T20:23:40.921Z,100913.09
2022-12-11T20:26:12.335Z,100917.47
2022-12-11T20:28:38.771Z,100914.00
2022-12-11T20:31:08.257Z,100922.81
2022-12-11T20:33:34.673Z,100921.16
2022-12-11T20:36:01.646Z,100922.84
2022-12-11T20:38:34.100Z,100926.34
2022-12-11T20:41:00.869Z,100923.75
2022-12-11T20:43:27.289Z,100921.97
2022-12-11T20:45:54.836Z,100916.63
2022-12-11T20:48:21.295Z,100922.69
2022-12-11T20:50:47.691Z,100917.53
2022-12-11T20:53:14.328Z,100915.88
2022-12-11T20:55:41.186Z,100908.94
2022-12-11T20:58:08.075Z,100913.28
2022-12-11T21:00:36.788Z,100911.50
2022-12-11T21:03:03.550Z,100910.56
2022-12-11T21:05:31.008Z,100914.09
2022-12-11T21:07:57.471Z,100907.09
2022-12-11T21:10:27.729Z,100911.50
2022-12-11T21:12:54.153Z,100913.22
2022-12-11T21:15:20.564Z,100916.72
2022-12-11T21:17:46.973Z,100919.41
2022-12-11T21:20:13.416Z,100919.47
2022-12-11T21:22:39.892Z,100923.00
2022-12-11T21:25:06.539Z,100929.06
2022-12-11T21:27:32.948Z,100922.91
2022-12-11T21:30:00.600Z,100925.53
2022-12-11T21:32:27.063Z,100920.28
2022-12-11T21:34:53.456Z,100915.88
2022-12-11T21:37:19.832Z,100920.22
2022-12-11T21:39:46.227Z,100917.63
2022-12-11T21:42:12.652Z,100918.50
2022-12-11T21:47:25.531Z,100928.09
2022-12-11T21:49:51.940Z,100919.28
2022-12-11T21:52:18.341Z,100918.41
2022-12-11T21:54:45.878Z,100925.41
2022-12-11T21:57:13.027Z,100926.31
2022-12-11T21:59:39.428Z,100923.72
2022-12-11T22:02:05.889Z,100928.16
2022-12-11T22:04:32.374Z,100931.66
2022-12-11T22:06:58.806Z,100931.69
2022-12-11T22:09:25.501Z,100936.91
2022-12-11T22:11:57.919Z,100929.03
2022-12-11T22:14:25.430Z,100926.38
2022-12-11T22:16:51.837Z,100921.09
2022-12-11T22:19:18.272Z,100932.41
2022-12-11T22:21:44.668Z,100934.22
2022-12-11T22:24:11.074Z,100939.47
2022-12-11T22:26:39.964Z,100933.34
2022-12-11T22:29:06.382Z,100930.75
2022-12-11T22:31:32.772Z,100923.72
2022-12-11T22:33:59.193Z,100926.38
2022-12-11T22:36:28.650Z,100926.38
2022-12-11T22:38:55.045Z,100921.03
2022-12-11T22:41:30.862Z,100923.63
2022-12-11T22:43:57.611Z,100927.25
2022-12-11T22:46:26.132Z,100929.88
2022-12-11T22:48:53.793Z,100929.00
2022-12-11T22:51:20.291Z,100918.59
2022-12-11T22:53:46.693Z,100917.00
2022-12-11T22:56:13.624Z,100921.47
2022-12-11T22:58:40.090Z,100921.41
2022-12-11T23:01:14.236Z,100924.78
2022-12-11T23:03:40.746Z,100928.09
2022-12-11T23:06:07.883Z,100922.75
2022-12-11T23:08:34.798Z,100924.41
2022-12-11T23:11:01.275Z,100924.47
2022-12-11T23:13:27.705Z,100914.97
2022-12-11T23:15:54.107Z,100921.06
2022-12-11T23:18:20.515Z,100922.72
2022-12-11T23:20:46.898Z,100926.97
2022-12-11T23:23:13.311Z,100927.78
2022-12-11T23:25:39.684Z,100926.00
2022-12-11T23:28:06.087Z,100924.16
2022-12-11T23:30:32.526Z,100929.38
2022-12-11T23:32:58.948Z,100936.34
2022-12-11T23:35:25.313Z,100925.78
2022-12-11T23:37:51.692Z,100917.91
2022-12-11T23:40:18.147Z,100919.63
2022-12-11T23:42:44.594Z,100918.78
2022-12-11T23:45:11.519Z,100925.72
2022-12-11T23:47:38.131Z,100931.88
2022-12-11T23:50:04.992Z,100930.97
2022-12-11T23:52:31.376Z,100932.72
2022-12-11T23:54:57.784Z,100938.84
2022-12-11T23:57:24.152Z,100935.34
2022-12-11T23:59:50.571Z,100940.56
